createdAt,value
2023-05-02T00:01:26.760Z,13.875822
2023-05-02T00:06:28.123Z,13.799032
2023-05-02T00:11:29.582Z,14.081482
2023-05-02T00:16:30.825Z,13.670162
2023-05-02T00:21:32.372Z,13.124328
2023-05-02T00:26:33.663Z,13.5969
2023-05-02T00:31:35.056Z,13.618354
2023-05-02T00:36:36.478Z,13.040548
2023-05-02T00:41:37.842Z,13.508902
2023-05-02T00:46:39.166Z,13.671044
2023-05-02T00:51:40.613Z,13.300758
2023-05-02T00:56:42.198Z,13.227496
2023-05-02T01:01:43.819Z,13.252044
2023-05-02T01:06:45.572Z,13.877248
2023-05-02T01:11:47.185Z,13.577306
2023-05-02T01:16:48.691Z,13.251772
2023-05-02T01:21:50.223Z,13.844586
2023-05-02T01:26:51.502Z,13.321058
2023-05-02T01:31:53.071Z,14.142044
2023-05-02T01:36:54.527Z,13.316214
2023-05-02T01:41:56.134Z,13.31445
2023-05-02T01:46:57.805Z,13.41595
2023-05-02T01:51:59.441Z,13.143746
2023-05-02T01:57:01.042Z,12.99756
2023-05-02T02:02:02.601Z,13.392556
2023-05-02T02:07:04.157Z,12.921652
2023-05-02T02:12:05.668Z,12.966228
2023-05-02T02:17:07.250Z,13.106064
2023-05-02T02:22:08.843Z,12.995906
2023-05-02T02:27:10.234Z,12.624738
2023-05-02T02:32:11.635Z,12.004502
2023-05-02T02:37:13.156Z,12.498352
2023-05-02T02:42:14.701Z,12.175302
2023-05-02T02:47:16.371Z,12.622798
2023-05-02T02:52:18.110Z,12.446882
2023-05-02T02:57:19.656Z,12.35906
2023-05-02T03:02:21.147Z,12.650168
2023-05-02T03:07:22.634Z,13.01797
2023-05-02T03:12:23.968Z,13.42416
2023-05-02T03:17:26.295Z,12.562508
2023-05-02T03:22:27.801Z,13.279238
2023-05-02T03:27:29.053Z,12.531624
2023-05-02T03:32:30.435Z,12.648742
2023-05-02T03:37:32.073Z,12.998986
2023-05-02T03:42:33.296Z,12.631184
2023-05-02T03:47:34.592Z,12.25562
2023-05-02T03:52:36.054Z,13.040916
2023-05-02T03:57:37.293Z,13.40078
2023-05-02T04:02:38.849Z,13.289998
2023-05-02T04:07:40.541Z,13.317192
2023-05-02T04:12:42.163Z,13.215582
2023-05-02T04:17:43.787Z,13.105344
2023-05-02T04:22:45.476Z,12.681676
2023-05-02T04:27:47.033Z,13.399546
2023-05-02T04:32:48.613Z,13.021226
2023-05-02T04:37:49.918Z,13.116824
2023-05-02T04:42:51.207Z,12.518814
2023-05-02T04:47:52.761Z,13.124776
2023-05-02T04:52:54.425Z,12.762442
2023-05-02T04:57:56.000Z,12.440098
2023-05-02T05:02:59.190Z,12.420232
2023-05-02T05:08:02.500Z,12.935264
2023-05-02T05:13:04.099Z,11.30616
2023-05-02T05:18:05.724Z,11.567524
2023-05-02T05:23:07.412Z,11.826036
2023-05-02T05:28:08.988Z,11.745828
2023-05-02T05:33:10.613Z,12.55335
2023-05-02T05:38:12.331Z,12.539224
2023-05-02T05:43:13.912Z,13.61024
2023-05-02T05:48:15.532Z,13.00075
2023-05-02T05:53:17.194Z,12.72537
2023-05-02T05:58:18.804Z,14.06349
2023-05-02T06:03:20.432Z,14.713308
2023-05-02T06:08:22.148Z,14.87811
2023-05-02T06:13:23.730Z,15.148822
2023-05-02T06:18:25.053Z,15.91561
2023-05-02T06:23:26.556Z,15.491398
2023-05-02T06:28:27.914Z,16.468976
2023-05-02T06:33:29.176Z,16.319806
2023-05-02T06:38:30.529Z,17.35937
2023-05-02T06:43:31.847Z,17.087314
2023-05-02T06:48:33.277Z,17.210186
2023-05-02T06:53:34.798Z,17.699912
2023-05-02T06:58:36.148Z,18.056968
2023-05-02T07:03:37.480Z,18.15954
2023-05-02T07:08:38.932Z,18.53117
2023-05-02T07:13:40.308Z,18.834572
2023-05-02T07:18:41.766Z,19.90973
2023-05-02T07:23:43.292Z,19.177326
2023-05-02T07:28:44.770Z,19.410614
2023-05-02T07:33:46.233Z,19.221196
2023-05-02T07:38:47.860Z,19.571196
2023-05-02T07:43:49.310Z,20.640994
2023-05-02T07:48:50.768Z,20.573024
2023-05-02T07:53:52.222Z,20.353672
2023-05-02T07:58:53.696Z,21.197754
2023-05-02T08:03:55.472Z,21.42727
2023-05-02T08:08:57.257Z,21.967068
2023-05-02T08:13:58.840Z,22.274012
2023-05-02T08:19:00.430Z,22.861494
2023-05-02T08:24:02.015Z,22.381212
2023-05-02T08:29:03.625Z,22.943522
2023-05-02T08:34:05.207Z,22.725486
2023-05-02T08:39:06.824Z,22.777132
2023-05-02T08:44:08.510Z,23.500798
2023-05-02T08:49:10.057Z,23.56543
2023-05-02T08:54:11.818Z,24.00039
2023-05-02T08:59:13.379Z,23.315668
2023-05-02T09:04:14.971Z,24.548452
2023-05-02T09:09:18.448Z,24.325694
2023-05-02T09:14:20.740Z,24.224804
2023-05-02T09:19:22.316Z,24.720936
2023-05-02T09:24:24.066Z,24.799056
2023-05-02T09:29:25.589Z,24.193716
2023-05-02T09:34:27.053Z,24.38597
2023-05-02T09:39:28.321Z,23.515752
2023-05-02T09:44:29.646Z,24.752064
2023-05-02T09:49:30.959Z,24.01917
2023-05-02T09:54:32.401Z,24.922648
2023-05-02T09:59:33.708Z,25.237354
2023-05-02T10:04:35.113Z,24.54928
2023-05-02T10:09:36.735Z,25.409932
2023-05-02T10:14:38.136Z,24.522304
2023-05-02T10:19:39.415Z,25.137604
2023-05-02T10:24:40.784Z,25.531082
2023-05-02T10:29:42.236Z,25.08817
2023-05-02T10:34:43.647Z,26.007104
2023-05-02T10:39:45.250Z,26.605632
2023-05-02T10:44:46.812Z,26.76494
2023-05-02T10:49:48.381Z,26.148988
2023-05-02T10:54:49.998Z,27.148104
2023-05-02T10:59:51.700Z,26.320928
2023-05-02T11:04:53.379Z,26.791658
2023-05-02T11:09:54.888Z,26.297778
2023-05-02T11:14:56.790Z,26.031814
2023-05-02T11:19:58.398Z,26.532994
2023-05-02T11:25:00.166Z,27.196386
2023-05-02T11:30:01.923Z,27.045708
2023-05-02T11:35:03.434Z,27.405372
2023-05-02T11:40:05.072Z,26.958944
2023-05-02T11:45:06.691Z,26.943706
2023-05-02T11:50:08.269Z,27.020536
2023-05-02T11:55:11.102Z,26.555506
2023-05-02T12:00:13.376Z,27.937504
2023-05-02T12:05:15.037Z,25.854622
2023-05-02T12:10:16.634Z,25.82348
2023-05-02T12:15:18.184Z,25.221858
2023-05-02T12:20:19.762Z,25.32823
2023-05-02T12:25:21.460Z,25.577178
2023-05-02T12:30:22.980Z,25.14021
2023-05-02T12:35:24.792Z,24.192142
2023-05-02T12:40:26.419Z,25.27174
2023-05-02T12:45:27.745Z,24.393366
2023-05-02T12:50:29.046Z,23.627172
2023-05-02T12:55:30.328Z,23.89353
2023-05-02T13:00:31.792Z,23.59314
2023-05-02T13:05:33.116Z,23.56269
2023-05-02T13:10:34.456Z,23.430264
2023-05-02T13:15:35.898Z,23.839672
2023-05-02T13:20:37.255Z,23.694654
2023-05-02T13:25:38.533Z,23.83438
2023-05-02T13:30:40.066Z,22.69699
2023-05-02T13:35:41.361Z,22.077538
2023-05-02T13:40:42.792Z,21.338742
2023-05-02T13:45:44.136Z,20.658404
2023-05-02T13:50:45.682Z,20.9963
2023-05-02T13:55:47.178Z,20.888096
2023-05-02T14:00:48.871Z,20.374094
2023-05-02T14:05:50.435Z,18.30795
2023-05-02T14:10:52.091Z,18.875986
2023-05-02T14:15:54.242Z,18.464448
2023-05-02T14:20:55.626Z,16.382742
2023-05-02T14:25:57.178Z,16.9655
2023-05-02T14:30:58.586Z,17.97745
2023-05-02T14:35:59.898Z,17.068072
2023-05-02T14:41:01.407Z,16.915102
2023-05-02T14:46:02.878Z,17.215234
2023-05-02T14:51:04.238Z,17.786702
2023-05-02T14:56:05.756Z,18.09142
2023-05-02T15:01:07.135Z,17.35116
2023-05-02T15:06:08.675Z,16.347692
2023-05-02T15:11:10.207Z,17.363156
2023-05-02T15:16:11.540Z,17.38294
2023-05-02T15:21:13.029Z,18.094406
2023-05-02T15:26:14.360Z,18.109332
2023-05-02T15:31:15.651Z,18.59112
2023-05-02T15:36:16.937Z,18.59667
2023-05-02T15:41:18.377Z,17.785454
2023-05-02T15:46:19.889Z,18.472658
2023-05-02T15:51:21.374Z,17.645634
2023-05-02T15:56:23.252Z,16.994186
2023-05-02T16:01:24.747Z,16.803792
2023-05-02T16:06:26.157Z,17.066214
2023-05-02T16:11:27.489Z,17.721976
2023-05-02T16:16:28.923Z,17.535734
2023-05-02T16:21:30.291Z,17.534404
2023-05-02T16:26:31.856Z,17.836734
2023-05-02T16:31:33.249Z,17.520902
2023-05-02T16:36:34.605Z,17.29007
2023-05-02T16:41:36.036Z,17.448088
2023-05-02T16:46:37.338Z,17.913714
2023-05-02T16:51:38.724Z,17.566184
2023-05-02T16:56:42.029Z,17.674048
2023-05-02T17:01:44.780Z,17.886534
2023-05-02T17:06:46.922Z,17.721284
2023-05-02T17:11:49.118Z,17.84592
2023-05-02T17:16:51.849Z,18.105004
2023-05-02T17:21:54.643Z,17.859082
2023-05-02T17:26:56.971Z,17.70443
2023-05-02T17:31:59.158Z,18.132808
2023-05-02T17:37:00.917Z,18.25701
2023-05-02T17:42:02.573Z,18.592708
2023-05-02T17:47:03.930Z,18.55052
2023-05-02T17:52:05.494Z,18.254364
2023-05-02T17:57:07.188Z,18.065272
2023-05-02T18:02:10.265Z,17.499462
2023-05-02T18:07:12.828Z,17.662066
2023-05-02T18:12:15.695Z,17.594788
2023-05-02T18:17:18.396Z,17.689246
2023-05-02T18:22:20.914Z,17.75438
2023-05-02T18:27:22.877Z,17.046266
2023-05-02T18:32:24.463Z,16.619924
2023-05-02T18:37:26.049Z,16.88217
2023-05-02T18:42:27.701Z,17.03214
2023-05-02T18:47:29.013Z,16.869468
2023-05-02T18:52:30.304Z,16.651446
2023-05-02T18:57:31.702Z,16.654526
2023-05-02T19:02:33.145Z,16.57182
2023-05-02T19:07:36.204Z,16.653468
2023-05-02T19:12:39.922Z,16.023746
2023-05-02T19:17:42.751Z,16.048116
2023-05-02T19:22:44.309Z,16.119438
2023-05-02T19:27:46.824Z,15.975112
2023-05-02T19:32:48.324Z,16.059854
2023-05-02T19:37:49.833Z,16.081742
2023-05-02T19:42:51.340Z,16.097008
2023-05-02T19:47:52.912Z,15.669702
2023-05-02T19:52:54.591Z,15.613212
2023-05-02T19:57:56.273Z,15.713654
2023-05-02T20:02:57.828Z,15.578338
2023-05-02T20:07:59.414Z,15.925774
2023-05-02T20:13:01.060Z,16.063912
2023-05-02T20:18:02.729Z,15.834586
2023-05-02T20:23:04.329Z,15.596522
2023-05-02T20:28:05.994Z,15.145198
2023-05-02T20:33:15.407Z,14.058904
2023-05-02T20:38:18.142Z,14.185562
2023-05-02T20:43:19.960Z,14.53016
2023-05-02T20:48:22.116Z,14.724082
2023-05-02T20:53:24.173Z,14.98288
2023-05-02T20:58:25.797Z,15.151644
2023-05-02T21:03:27.353Z,14.831674
2023-05-02T21:08:28.972Z,14.290588
2023-05-02T21:13:30.421Z,14.55107
2023-05-02T21:18:31.683Z,14.71499
2023-05-02T21:23:32.952Z,13.89657
2023-05-02T21:28:34.326Z,13.895688
2023-05-02T21:33:35.616Z,13.799032
2023-05-02T21:38:37.102Z,13.991558
2023-05-02T21:43:38.439Z,14.065606
2023-05-02T21:48:39.866Z,13.553206
2023-05-02T21:53:41.327Z,14.036024
2023-05-02T21:58:42.625Z,13.729746
2023-05-02T22:03:43.915Z,13.636008
2023-05-02T22:08:45.257Z,13.315252
2023-05-02T22:13:46.664Z,13.421514
2023-05-02T22:18:47.987Z,13.197142
2023-05-02T22:23:49.499Z,12.956174
2023-05-02T22:28:51.003Z,14.2108
2023-05-02T22:33:52.570Z,14.342764
2023-05-02T22:38:54.030Z,14.312042
2023-05-02T22:43:55.560Z,14.942538
2023-05-02T22:48:57.111Z,13.52064
2023-05-02T22:53:58.682Z,14.710404
2023-05-02T22:59:00.160Z,14.706862
2023-05-02T23:04:01.681Z,14.214952
2023-05-02T23:09:03.192Z,14.583908
2023-05-02T23:14:05.089Z,14.320252
2023-05-02T23:19:06.669Z,15.126758
2023-05-02T23:24:08.228Z,15.15041
2023-05-02T23:29:10.060Z,13.094084
2023-05-02T23:34:11.607Z,14.015658
2023-05-02T23:39:13.169Z,14.334378
2023-05-02T23:44:14.781Z,14.129424
2023-05-02T23:49:16.436Z,15.017226
2023-05-02T23:54:17.990Z,14.315842
2023-05-02T23:59:19.676Z,13.176136
